»·PEaware :: FFT858 KLAS-KDEN

FFT858 :: KLAS-KDEN

FLIGHT INFORMATION

Flight Status: Arrived
Operator:
Frontier Airlines
More flights by this operator :: More flights under this callsign
Pilot: Ben F. (13029)
Aircraft: AIRBUS A320
(A320)
More flights by this aircraft type
Origin: KLAS McCarran Intl
United States
Destination: KDEN Denver Intl
United States
More flights between these airports :: More routes between these airports
Route: + / BUMMP SSKII1
File this flight plan on PilotEdge
Remarks: RMK / SIMBRIEF
Altitude:
(Current/Filed)
37,000ft
Speed:
(Current/Filed)
449kts
Departed: 13-Jun-20 09:08 AM
Arrived: 13-Jun-20 10:34 AM
Distance/Time
Traveled:
544nm/1:25
Distance/Time
To Go:
Arrived

Flight Plot

Page will automatically refresh every two minutes.

Flight plan parsing failed; only flown route is shown


Map Options




Map Legend


Flown Route
Filed Route
Departure Airport
Arrival Airport
Navaid (VOR, NDB)
Fix

Horizontal Profiles

Position Reports

Time Latitude Longitude Heading Altitude Ground
Speed
13-Jun-20 08:40 36.080503 -115.136427 41 2120ft 0kts
13-Jun-20 08:41 36.080503 -115.136427 41 2120ft 0kts
13-Jun-20 08:43 36.080503 -115.136427 41 2120ft 0kts
13-Jun-20 08:43 36.080503 -115.136427 41 2120ft 0kts
13-Jun-20 08:44 36.080503 -115.136427 41 2120ft 0kts
13-Jun-20 08:45 36.080503 -115.136427 41 2120ft 0kts
13-Jun-20 08:46 36.080503 -115.136427 41 2120ft 0kts
13-Jun-20 08:47 36.080503 -115.136427 41 2120ft 0kts
13-Jun-20 08:48 36.080503 -115.136427 41 2120ft 0kts
13-Jun-20 08:49 36.080503 -115.136427 41 2120ft 0kts
13-Jun-20 08:50 36.080503 -115.136427 41 2120ft 0kts
13-Jun-20 08:51 36.080503 -115.136427 41 2120ft 0kts
13-Jun-20 08:52 36.080503 -115.136427 41 2120ft 0kts
13-Jun-20 08:53 36.080503 -115.136427 41 2120ft 0kts
13-Jun-20 08:54 36.080503 -115.136427 41 2120ft 0kts
13-Jun-20 08:55 36.080503 -115.136427 41 2120ft 0kts
13-Jun-20 08:56 36.080503 -115.136427 41 2120ft 0kts
13-Jun-20 08:57 36.080307 -115.136684 62 2120ft 2kts
13-Jun-20 08:58 36.080316 -115.137392 123 2120ft 2kts
13-Jun-20 08:59 36.080423 -115.137548 136 2120ft 0kts
13-Jun-20 09:00 36.080423 -115.137548 136 2120ft 0kts
13-Jun-20 09:01 36.080054 -115.137252 144 2120ft 6kts
13-Jun-20 09:02 36.079085 -115.136119 135 2120ft 5kts
13-Jun-20 09:03 36.078269 -115.131805 90 2120ft 22kts
13-Jun-20 09:04 36.078264 -115.122860 103 2120ft 16kts
13-Jun-20 09:05 36.077477 -115.121468 138 2120ft 0kts
13-Jun-20 09:06 36.076431 -115.123093 269 2120ft 22kts
13-Jun-20 09:07 36.077183 -115.169838 270 3663ft 181kts
13-Jun-20 09:33 36.885425 -111.692379 62 37076ft 513kts
13-Jun-20 09:34 36.956704 -111.538119 62 37079ft 513kts
13-Jun-20 09:35 37.027448 -111.383297 63 37085ft 513kts
13-Jun-20 09:36 37.097668 -111.228862 64 37079ft 513kts
13-Jun-20 09:37 37.168021 -111.073405 64 37065ft 511kts
13-Jun-20 09:39 37.249630 -110.892125 63 37061ft 512kts
13-Jun-20 09:39 37.307848 -110.762196 63 37072ft 513kts
13-Jun-20 09:40 37.377462 -110.606153 63 37103ft 513kts
13-Jun-20 09:41 37.447013 -110.449497 63 37232ft 514kts
13-Jun-20 09:42 37.516698 -110.291777 64 37215ft 514kts
13-Jun-20 09:43 37.585823 -110.134566 64 37280ft 513kts
13-Jun-20 09:44 37.654854 -109.976793 64 37262ft 513kts
13-Jun-20 09:45 37.723578 -109.818947 64 37262ft 513kts
13-Jun-20 09:46 37.792008 -109.660997 64 37260ft 514kts
13-Jun-20 09:47 37.860325 -109.502531 64 37269ft 514kts
13-Jun-20 09:48 37.928531 -109.343539 65 37266ft 514kts
13-Jun-20 09:49 37.996540 -109.184212 64 37258ft 513kts
13-Jun-20 09:51 38.074913 -108.999618 64 37294ft 508kts
13-Jun-20 09:51 38.128727 -108.866404 65 37267ft 503kts
13-Jun-20 09:52 38.191049 -108.708095 65 37134ft 499kts
13-Jun-20 09:53 38.252722 -108.550617 65 37288ft 498kts
13-Jun-20 09:54 38.314370 -108.392383 65 37233ft 500kts
13-Jun-20 09:55 38.374470 -108.237364 66 37187ft 500kts
13-Jun-20 09:56 38.435692 -108.078623 66 37196ft 500kts
13-Jun-20 09:57 38.497062 -107.918668 66 37209ft 501kts
13-Jun-20 09:58 38.558142 -107.758637 66 37219ft 502kts
13-Jun-20 09:59 38.619030 -107.598548 66 37216ft 502kts
13-Jun-20 10:00 38.679864 -107.437866 66 37263ft 501kts
13-Jun-20 10:01 38.740327 -107.277001 67 37360ft 501kts
13-Jun-20 10:02 38.789509 -107.110831 72 37355ft 499kts
13-Jun-20 10:03 38.848725 -106.949477 63 37365ft 501kts
13-Jun-20 10:04 38.912573 -106.792611 63 37377ft 491kts
13-Jun-20 10:05 38.974233 -106.637859 63 37425ft 484kts
13-Jun-20 10:06 39.033207 -106.481305 65 35706ft 495kts
13-Jun-20 10:07 39.092768 -106.317957 66 32411ft 508kts
13-Jun-20 10:08 39.152845 -106.152413 66 29691ft 501kts
13-Jun-20 10:09 39.210595 -105.992605 66 27531ft 483kts
13-Jun-20 10:10 39.266141 -105.838003 66 25340ft 467kts
13-Jun-20 10:11 39.319303 -105.689292 66 23250ft 448kts
13-Jun-20 10:12 39.371246 -105.546578 65 21518ft 421kts
13-Jun-20 10:13 39.419192 -105.417687 58 20736ft 377kts
13-Jun-20 10:14 39.477152 -105.310435 55 18934ft 351kts
13-Jun-20 10:15 39.532449 -105.208347 55 17363ft 341kts
13-Jun-20 10:16 39.586016 -105.109074 55 16226ft 331kts
13-Jun-20 10:17 39.638469 -105.011540 55 15122ft 325kts
13-Jun-20 10:18 39.689864 -104.915697 56 14042ft 319kts
13-Jun-20 10:19 39.750588 -104.840983 1 13026ft 301kts
13-Jun-20 10:20 39.833279 -104.839942 358 11740ft 294kts
13-Jun-20 10:21 39.910786 -104.839156 358 11230ft 261kts
13-Jun-20 10:22 39.984868 -104.837671 358 11065ft 265kts
13-Jun-20 10:23 40.058368 -104.835963 358 11062ft 263kts
13-Jun-20 10:24 40.131262 -104.834272 358 10468ft 250kts
13-Jun-20 10:25 40.202433 -104.832652 358 9907ft 255kts
13-Jun-20 10:26 40.252189 -104.784761 93 8928ft 256kts
13-Jun-20 10:27 40.209867 -104.715242 139 8059ft 248kts
13-Jun-20 10:28 40.149235 -104.684049 182 8036ft 245kts
13-Jun-20 10:29 40.080971 -104.684634 181 8047ft 246kts
13-Jun-20 10:30 40.012495 -104.685468 181 7668ft 243kts
13-Jun-20 10:31 39.944655 -104.686279 180 6536ft 239kts
13-Jun-20 10:32 39.880545 -104.686984 180 5326ft 156kts
13-Jun-20 10:33 39.868235 -104.685629 92 5326ft 0kts
13-Jun-20 10:34 39.868235 -104.685629 92 5326ft 0kts
13-Jun-20 10:35 39.868235 -104.685619 92 5326ft 0kts
13-Jun-20 10:36 39.867090 -104.683839 179 5326ft 18kts
13-Jun-20 10:37 39.860139 -104.683942 180 5326ft 27kts
13-Jun-20 10:38 39.852455 -104.683950 166 5326ft 22kts
13-Jun-20 10:39 39.852427 -104.677891 91 5326ft 16kts
13-Jun-20 10:40 39.853312 -104.676584 359 5326ft 0kts
13-Jun-20 10:41 39.853314 -104.676584 359 5326ft 0kts
13-Jun-20 10:42 39.853314 -104.676584 359 5326ft 0kts
13-Jun-20 10:43 39.853313 -104.676584 359 5326ft 0kts
13-Jun-20 10:44 39.853313 -104.676584 359 5326ft 0kts
13-Jun-20 10:45 39.853313 -104.676584 359 5326ft 0kts

Navigation Log

Ident Type
Flight plan parsing failed, navigation log unavailable